createdAt,value
2018-11-26T00:00:21.697Z,11.17
2018-11-26T00:02:50.150Z,12.87
2018-11-26T00:05:18.843Z,10.83
2018-11-26T00:07:47.497Z,9.37
2018-11-26T00:10:27.324Z,9.53
2018-11-26T00:12:55.996Z,10.80
2018-11-26T00:15:25.347Z,10.57
2018-11-26T00:17:54.009Z,12.07
2018-11-26T00:20:22.680Z,8.83
2018-11-26T00:22:51.337Z,9.90
2018-11-26T00:25:20.025Z,9.70
2018-11-26T00:27:48.688Z,9.80
2018-11-26T00:30:17.388Z,14.50
2018-11-26T00:32:46.052Z,10.83
2018-11-26T00:35:14.839Z,8.77
2018-11-26T00:37:43.543Z,10.90
2018-11-26T00:40:12.398Z,12.67
2018-11-26T00:42:41.035Z,14.93
2018-11-26T00:45:11.662Z,11.00
2018-11-26T00:47:40.312Z,8.30
2018-11-26T00:50:10.106Z,10.13
2018-11-26T00:52:39.835Z,10.30
2018-11-26T00:55:10.173Z,9.83
2018-11-26T00:57:38.829Z,9.77
2018-11-26T01:00:11.283Z,8.37
2018-11-26T01:02:39.943Z,10.10
2018-11-26T01:05:10.833Z,9.37
2018-11-26T01:07:39.514Z,9.10
2018-11-26T01:10:08.214Z,9.13
2018-11-26T01:12:36.877Z,12.00
2018-11-26T01:15:06.120Z,8.20
2018-11-26T01:17:34.805Z,9.40
2018-11-26T01:20:03.450Z,10.73
2018-11-26T01:22:32.168Z,9.07
2018-11-26T01:25:00.824Z,9.60
2018-11-26T01:27:29.481Z,10.47
2018-11-26T01:29:58.141Z,10.70
2018-11-26T01:32:26.871Z,9.67
2018-11-26T01:34:55.536Z,10.27
2018-11-26T01:37:24.205Z,8.90
2018-11-26T01:39:52.850Z,9.47
2018-11-26T01:42:21.526Z,8.07
2018-11-26T01:44:50.187Z,10.63
2018-11-26T01:47:18.813Z,9.70
2018-11-26T01:49:47.493Z,9.10
2018-11-26T01:52:16.154Z,8.00
2018-11-26T01:54:44.824Z,9.40
2018-11-26T01:57:13.493Z,9.60
2018-11-26T01:59:42.139Z,10.23
2018-11-26T02:02:13.574Z,9.50
2018-11-26T02:04:42.221Z,8.67
2018-11-26T02:07:10.858Z,9.73
2018-11-26T02:09:39.544Z,11.03
2018-11-26T02:12:08.260Z,9.40
2018-11-26T02:14:36.896Z,8.77
2018-11-26T02:17:05.719Z,11.20
2018-11-26T02:19:34.368Z,10.90
2018-11-26T02:22:03.037Z,9.37
2018-11-26T02:24:31.690Z,9.37
2018-11-26T02:27:00.345Z,8.83
2018-11-26T02:29:29.060Z,9.97
2018-11-26T02:31:57.792Z,8.43
2018-11-26T02:34:26.517Z,10.20
2018-11-26T02:36:55.164Z,8.93
2018-11-26T02:39:23.823Z,9.07
2018-11-26T02:41:52.523Z,9.93
2018-11-26T02:44:21.266Z,9.77
2018-11-26T02:46:49.874Z,8.27
2018-11-26T02:49:18.525Z,9.03
2018-11-26T02:51:47.183Z,7.63
2018-11-26T02:54:15.862Z,8.53
2018-11-26T02:56:44.501Z,12.03
2018-11-26T02:59:13.186Z,12.17
2018-11-26T03:01:41.929Z,8.70
2018-11-26T03:04:13.743Z,9.43
2018-11-26T03:06:42.490Z,9.33
2018-11-26T03:09:11.169Z,8.80
2018-11-26T03:11:39.838Z,9.13
2018-11-26T03:14:08.477Z,11.07
2018-11-26T03:16:37.153Z,10.10
2018-11-26T03:19:06.156Z,9.03
2018-11-26T03:21:34.793Z,9.37
2018-11-26T03:24:03.445Z,9.83
2018-11-26T03:26:32.176Z,10.80
2018-11-26T03:29:00.838Z,10.53
2018-11-26T03:31:29.481Z,8.60
2018-11-26T03:33:58.150Z,9.83
2018-11-26T03:36:26.877Z,10.17
2018-11-26T03:38:55.962Z,10.73
2018-11-26T03:41:24.888Z,9.87
2018-11-26T03:43:53.566Z,11.87
2018-11-26T03:46:22.261Z,10.53
2018-11-26T03:48:50.925Z,10.20
2018-11-26T03:51:19.590Z,8.87
2018-11-26T03:53:48.278Z,10.07
2018-11-26T03:56:17.573Z,9.17
2018-11-26T03:58:46.226Z,8.77
2018-11-26T04:01:14.971Z,9.43
2018-11-26T04:03:43.623Z,10.60
2018-11-26T04:06:12.270Z,11.17
2018-11-26T04:08:40.591Z,9.83
2018-11-26T04:11:09.253Z,9.80
2018-11-26T04:13:37.677Z,8.90
2018-11-26T04:16:06.623Z,9.80
2018-11-26T04:18:35.261Z,9.80
2018-11-26T04:21:03.903Z,8.80
2018-11-26T04:23:32.623Z,9.60
2018-11-26T04:26:01.333Z,12.40
2018-11-26T04:28:30.027Z,9.77
2018-11-26T04:30:58.697Z,9.87
2018-11-26T04:33:27.347Z,10.67
2018-11-26T04:35:56.184Z,8.37
2018-11-26T04:38:24.895Z,10.20
2018-11-26T04:40:53.584Z,10.30
2018-11-26T04:43:22.319Z,9.97
2018-11-26T04:45:50.983Z,9.20
2018-11-26T04:48:19.645Z,9.53
2018-11-26T04:50:48.300Z,9.10
2018-11-26T04:53:17.025Z,9.97
2018-11-26T04:55:45.731Z,9.20
2018-11-26T04:58:14.656Z,14.03
2018-11-26T05:00:43.344Z,9.23
2018-11-26T05:03:12.029Z,9.57
2018-11-26T05:05:40.657Z,9.80
2018-11-26T05:08:09.355Z,9.57
2018-11-26T05:10:38.061Z,11.00
2018-11-26T05:13:06.850Z,9.17
2018-11-26T05:15:35.527Z,11.13
2018-11-26T05:18:04.246Z,11.17
2018-11-26T05:20:32.900Z,10.77
2018-11-26T05:23:01.537Z,13.20
2018-11-26T05:25:30.185Z,9.73
2018-11-26T05:27:58.804Z,9.03
2018-11-26T05:30:27.488Z,10.50
2018-11-26T05:32:56.224Z,9.70
2018-11-26T05:35:24.860Z,10.40
2018-11-26T05:37:53.529Z,9.83
2018-11-26T05:40:22.323Z,11.20
2018-11-26T05:42:51.269Z,10.00
2018-11-26T05:45:19.953Z,11.00
2018-11-26T05:47:48.635Z,11.50
2018-11-26T05:50:17.299Z,11.20
2018-11-26T05:52:45.958Z,10.63
2018-11-26T05:55:15.758Z,11.40
2018-11-26T05:57:45.340Z,10.80
2018-11-26T06:00:28.177Z,10.57
2018-11-26T06:02:56.829Z,9.90
2018-11-26T06:05:25.468Z,9.17
2018-11-26T06:07:53.758Z,9.70
2018-11-26T06:10:22.067Z,10.90
2018-11-26T06:12:50.747Z,10.50
2018-11-26T06:15:19.452Z,11.00
2018-11-26T06:17:48.147Z,9.67
2018-11-26T06:20:16.803Z,11.20
2018-11-26T06:22:46.724Z,13.97
2018-11-26T06:25:16.624Z,18.23
2018-11-26T06:27:45.321Z,17.07
2018-11-26T06:30:15.802Z,18.83
2018-11-26T06:33:18.494Z,13.10
2018-11-26T06:36:22.636Z,12.30
2018-11-26T06:38:51.581Z,19.13
2018-11-26T06:41:41.640Z,11.70
2018-11-26T06:44:29.421Z,11.23
2018-11-26T06:46:58.238Z,11.50
2018-11-26T06:49:27.054Z,13.20
2018-11-26T06:51:55.868Z,13.30
2018-11-26T06:54:24.501Z,13.57
2018-11-26T06:56:53.179Z,17.03
2018-11-26T06:59:22.001Z,18.10
2018-11-26T07:01:51.679Z,12.50
2018-11-26T07:04:19.521Z,13.43
2018-11-26T07:06:48.245Z,14.77
2018-11-26T07:09:16.929Z,14.50
2018-11-26T07:11:45.580Z,12.70
2018-11-26T07:14:14.283Z,12.73
2018-11-26T07:16:42.949Z,13.47
2018-11-26T07:19:11.651Z,14.43
2018-11-26T07:21:40.491Z,16.47
2018-11-26T07:24:09.193Z,20.17
2018-11-26T07:26:37.878Z,13.07
2018-11-26T07:29:06.516Z,23.53
2018-11-26T07:31:35.141Z,29.37
2018-11-26T07:34:03.852Z,18.77
2018-11-26T07:36:32.544Z,19.83
2018-11-26T07:39:01.245Z,20.43
2018-11-26T07:41:29.909Z,21.93
2018-11-26T07:43:58.630Z,22.90
2018-11-26T07:46:27.348Z,23.00
2018-11-26T07:48:56.001Z,19.23
2018-11-26T07:51:24.673Z,22.03
2018-11-26T07:53:53.326Z,23.53
2018-11-26T07:56:22.011Z,26.43
2018-11-26T07:58:50.738Z,18.77
2018-11-26T08:01:19.395Z,25.87
2018-11-26T08:03:48.026Z,24.63
2018-11-26T08:06:16.763Z,23.17
2018-11-26T08:08:45.414Z,25.87
2018-11-26T08:11:14.074Z,25.30
2018-11-26T08:13:42.802Z,21.00
2018-11-26T08:16:11.455Z,28.17
2018-11-26T08:18:40.194Z,28.07
2018-11-26T08:21:08.876Z,22.83
2018-11-26T08:23:37.553Z,35.40
2018-11-26T08:26:05.925Z,25.83
2018-11-26T08:28:34.593Z,32.67
2018-11-26T08:31:03.301Z,26.00
2018-11-26T08:33:31.991Z,28.87
2018-11-26T08:36:06.523Z,27.73
2018-11-26T08:38:45.517Z,30.73
2018-11-26T08:41:15.192Z,35.27
2018-11-26T08:43:45.346Z,22.27
2018-11-26T08:46:18.756Z,25.47
2018-11-26T08:48:48.476Z,22.47
2018-11-26T08:51:17.168Z,22.10
2018-11-26T08:53:45.872Z,25.93
2018-11-26T08:56:14.169Z,21.67
2018-11-26T08:58:42.986Z,22.27
2018-11-26T09:01:19.347Z,24.93
2018-11-26T09:03:49.404Z,25.53
2018-11-26T09:06:18.043Z,23.40
2018-11-26T09:08:46.700Z,23.50
2018-11-26T09:11:15.379Z,23.53
2018-11-26T09:13:44.125Z,22.70
2018-11-26T09:16:12.789Z,21.90
2018-11-26T09:18:41.491Z,21.67
2018-11-26T09:21:10.596Z,25.03
2018-11-26T09:23:39.849Z,23.53
2018-11-26T09:26:08.794Z,25.43
2018-11-26T09:28:37.509Z,23.10
2018-11-26T09:31:06.543Z,25.47
2018-11-26T09:33:35.158Z,24.40
2018-11-26T09:36:03.835Z,25.87
2018-11-26T09:38:32.478Z,24.33
2018-11-26T09:41:01.109Z,25.60
2018-11-26T09:43:29.757Z,26.17
2018-11-26T09:45:58.499Z,23.47
2018-11-26T09:48:27.172Z,21.83
2018-11-26T09:50:55.829Z,25.27
2018-11-26T09:53:24.119Z,25.80
2018-11-26T09:55:52.815Z,31.00
2018-11-26T09:58:21.560Z,26.90
2018-11-26T10:00:50.790Z,26.17
2018-11-26T10:03:19.477Z,25.43
2018-11-26T10:05:48.105Z,22.00
2018-11-26T10:08:16.793Z,26.23
2018-11-26T10:10:45.453Z,22.30
2018-11-26T10:13:14.141Z,29.60
2018-11-26T10:15:42.861Z,22.83
2018-11-26T10:18:11.620Z,23.30
2018-11-26T10:20:40.306Z,23.87
2018-11-26T10:23:09.009Z,24.23
2018-11-26T10:25:37.641Z,22.47
2018-11-26T10:28:06.520Z,21.67
2018-11-26T10:30:35.149Z,22.07
2018-11-26T10:33:03.932Z,26.00
2018-11-26T10:35:32.696Z,24.07
2018-11-26T10:38:01.360Z,25.40
2018-11-26T10:40:29.985Z,24.53
2018-11-26T10:42:58.600Z,22.77
2018-11-26T10:45:27.397Z,22.23
2018-11-26T10:47:56.084Z,25.17
2018-11-26T10:50:25.887Z,24.53
2018-11-26T10:52:56.037Z,22.67
2018-11-26T10:55:26.265Z,23.70
2018-11-26T10:57:54.899Z,22.70
2018-11-26T11:00:28.972Z,23.03
2018-11-26T11:02:57.647Z,22.07
2018-11-26T11:05:26.377Z,23.33
2018-11-26T11:07:55.051Z,23.40
2018-11-26T11:10:26.773Z,23.37
2018-11-26T11:12:55.425Z,26.57
2018-11-26T11:15:24.097Z,22.57
2018-11-26T11:17:52.781Z,22.33
2018-11-26T11:20:23.856Z,23.50
2018-11-26T11:22:52.540Z,21.20
2018-11-26T11:25:21.660Z,21.47
2018-11-26T11:27:50.669Z,21.23
2018-11-26T11:30:20.372Z,21.50
2018-11-26T11:32:49.081Z,23.57
2018-11-26T11:35:18.287Z,23.33
2018-11-26T11:37:47.895Z,22.43
2018-11-26T11:40:20.499Z,22.43
2018-11-26T11:42:49.285Z,21.43
2018-11-26T11:45:18.126Z,20.93
2018-11-26T11:47:46.767Z,22.90
2018-11-26T11:50:16.819Z,22.03
2018-11-26T11:52:45.577Z,23.87
2018-11-26T11:55:15.452Z,21.57
2018-11-26T11:57:44.262Z,20.83
2018-11-26T12:00:21.678Z,22.47
2018-11-26T12:02:50.514Z,22.23
2018-11-26T12:05:19.243Z,20.87
2018-11-26T12:07:47.992Z,22.17
2018-11-26T12:10:16.681Z,20.40
2018-11-26T12:12:45.705Z,18.47
2018-11-26T12:15:15.658Z,21.07
2018-11-26T12:17:45.126Z,21.57
2018-11-26T12:20:15.689Z,19.60
2018-11-26T12:22:44.758Z,21.83
2018-11-26T12:25:16.698Z,21.70
2018-11-26T12:27:45.331Z,22.97
2018-11-26T12:30:19.389Z,23.23
2018-11-26T12:32:48.065Z,21.53
2018-11-26T12:35:16.738Z,22.70
2018-11-26T12:37:45.443Z,25.33
2018-11-26T12:40:17.389Z,19.27
2018-11-26T12:42:46.082Z,21.33
2018-11-26T12:45:17.222Z,23.00
2018-11-26T12:47:45.987Z,21.13
2018-11-26T12:50:14.679Z,20.40
2018-11-26T12:52:43.389Z,21.10
2018-11-26T12:55:14.213Z,20.33
2018-11-26T12:57:43.894Z,21.93
2018-11-26T13:00:20.287Z,20.57
2018-11-26T13:02:57.012Z,19.80
2018-11-26T13:05:25.685Z,19.70
2018-11-26T13:07:54.521Z,20.57
2018-11-26T13:10:23.780Z,20.37
2018-11-26T13:12:52.800Z,18.73
2018-11-26T13:15:25.037Z,22.30
2018-11-26T13:17:53.733Z,23.83
2018-11-26T13:20:25.344Z,20.17
2018-11-26T13:22:54.437Z,21.03
2018-11-26T13:25:28.006Z,18.77
2018-11-26T13:27:59.188Z,20.77
2018-11-26T13:30:31.948Z,23.37
2018-11-26T13:33:01.045Z,18.90
2018-11-26T13:35:29.738Z,20.87
2018-11-26T13:37:58.566Z,21.63
2018-11-26T13:40:27.269Z,23.63
2018-11-26T13:42:56.194Z,21.30
2018-11-26T13:45:26.443Z,19.57
2018-11-26T13:47:55.242Z,20.97
2018-11-26T13:50:29.668Z,19.70
2018-11-26T13:52:58.862Z,22.23
2018-11-26T13:55:27.287Z,19.40
2018-11-26T13:57:56.005Z,19.90
2018-11-26T14:00:24.718Z,22.97
2018-11-26T14:02:53.092Z,17.87
2018-11-26T14:05:21.802Z,16.97
2018-11-26T14:07:50.675Z,21.57
2018-11-26T14:10:20.621Z,19.83
2018-11-26T14:12:55.170Z,18.57
2018-11-26T14:15:23.931Z,18.00
2018-11-26T14:17:52.650Z,17.87
2018-11-26T14:20:21.441Z,19.23
2018-11-26T14:22:50.170Z,21.03
2018-11-26T14:25:19.319Z,18.03
2018-11-26T14:27:48.578Z,18.00
2018-11-26T14:30:21.624Z,17.93
2018-11-26T14:32:50.434Z,18.27
2018-11-26T14:35:18.760Z,16.70
2018-11-26T14:37:49.672Z,15.93
2018-11-26T14:40:24.802Z,15.40
2018-11-26T14:42:53.505Z,15.93
2018-11-26T14:45:22.168Z,20.23
2018-11-26T14:47:50.887Z,16.27
2018-11-26T14:50:19.673Z,16.70
2018-11-26T14:52:49.354Z,15.70
2018-11-26T14:55:19.735Z,16.33
2018-11-26T14:57:48.672Z,13.73
2018-11-26T15:00:18.148Z,15.90
2018-11-26T15:02:46.823Z,14.87
2018-11-26T15:05:15.801Z,17.97
2018-11-26T15:07:44.922Z,14.73
2018-11-26T15:10:15.818Z,16.40
2018-11-26T15:12:44.807Z,17.93
2018-11-26T15:15:14.622Z,21.80
2018-11-26T15:17:43.992Z,16.67
2018-11-26T15:20:15.889Z,18.00
2018-11-26T15:22:44.602Z,16.17
2018-11-26T15:25:16.516Z,15.83
2018-11-26T15:27:45.223Z,17.07
2018-11-26T15:30:16.218Z,21.83
2018-11-26T15:32:45.106Z,16.67
2018-11-26T15:35:17.965Z,17.43
2018-11-26T15:37:46.683Z,17.13
2018-11-26T15:40:16.259Z,14.53
2018-11-26T15:42:45.056Z,18.77
2018-11-26T15:45:19.680Z,18.03
2018-11-26T15:47:56.559Z,17.10
2018-11-26T15:50:25.266Z,15.00
2018-11-26T15:52:54.011Z,16.07
2018-11-26T15:55:22.870Z,15.40
2018-11-26T15:57:51.567Z,15.27
2018-11-26T16:00:25.435Z,14.13
2018-11-26T16:02:54.231Z,14.43
2018-11-26T16:05:26.879Z,14.67
2018-11-26T16:07:59.127Z,15.97
2018-11-26T16:10:28.010Z,15.43
2018-11-26T16:12:57.967Z,15.17
2018-11-26T16:15:28.962Z,17.07
2018-11-26T16:17:58.267Z,18.33
2018-11-26T16:20:27.863Z,17.77
2018-11-26T16:22:58.127Z,13.27
2018-11-26T16:25:26.934Z,16.23
2018-11-26T16:27:55.638Z,12.93
2018-11-26T16:30:24.354Z,14.30
2018-11-26T16:32:56.170Z,18.57
2018-11-26T16:35:29.247Z,17.57
2018-11-26T16:37:58.030Z,18.90
2018-11-26T16:40:26.731Z,17.00
2018-11-26T16:42:55.418Z,15.40
2018-11-26T16:45:25.298Z,18.43
2018-11-26T16:47:55.027Z,17.57
2018-11-26T16:50:25.854Z,15.93
2018-11-26T16:52:55.107Z,16.37
2018-11-26T16:55:23.796Z,16.47
2018-11-26T16:57:52.662Z,16.27
2018-11-26T17:00:23.426Z,20.00
2018-11-26T17:02:53.982Z,17.10
2018-11-26T17:05:36.435Z,35.63
2018-11-26T17:08:05.917Z,56.43
2018-11-26T17:10:34.651Z,22.07
2018-11-26T17:13:03.365Z,39.60
2018-11-26T17:15:32.162Z,42.57
2018-11-26T17:18:00.869Z,46.87
2018-11-26T17:20:29.599Z,34.70
2018-11-26T17:22:58.297Z,29.50
2018-11-26T17:25:27.004Z,27.13
2018-11-26T17:27:55.384Z,21.63
2018-11-26T17:30:25.944Z,24.33
2018-11-26T17:32:58.687Z,21.17
2018-11-26T17:35:27.870Z,22.00
2018-11-26T17:37:56.557Z,24.77
2018-11-26T17:40:25.745Z,20.70
2018-11-26T17:42:54.935Z,30.37
2018-11-26T17:45:24.335Z,25.90
2018-11-26T17:47:59.094Z,20.90
2018-11-26T17:50:35.471Z,21.77
2018-11-26T17:53:05.058Z,22.63
2018-11-26T17:55:36.437Z,20.47
2018-11-26T17:58:05.441Z,15.77
2018-11-26T18:00:34.148Z,18.20
2018-11-26T18:03:02.922Z,20.10
2018-11-26T18:05:32.135Z,19.53
2018-11-26T18:08:16.627Z,21.80
2018-11-26T18:10:45.575Z,14.47
2018-11-26T18:13:14.312Z,24.10
2018-11-26T18:15:43.069Z,53.80
2018-11-26T18:18:16.161Z,31.07
2018-11-26T18:20:44.999Z,34.53
2018-11-26T18:23:13.847Z,29.97
2018-11-26T18:25:42.985Z,31.80
2018-11-26T18:28:15.269Z,34.17
2018-11-26T18:30:46.158Z,44.57
2018-11-26T18:33:14.867Z,42.48
2018-11-26T18:35:44.137Z,32.85
2018-11-26T18:38:12.795Z,31.67
2018-11-26T18:40:42.921Z,33.17
2018-11-26T18:43:11.639Z,29.03
2018-11-26T18:45:41.195Z,30.37
2018-11-26T18:48:12.103Z,23.13
2018-11-26T18:50:41.379Z,24.33
2018-11-26T18:53:10.157Z,25.37
2018-11-26T18:55:41.758Z,22.47
2018-11-26T18:58:10.934Z,26.57
2018-11-26T19:00:40.319Z,21.73
2018-11-26T19:03:11.974Z,22.43
2018-11-26T19:08:12.467Z,19.77
2018-11-26T19:10:41.356Z,21.97
2018-11-26T19:13:15.940Z,23.40
2018-11-26T19:15:47.096Z,20.87
2018-11-26T19:18:22.828Z,19.20
2018-11-26T19:20:51.846Z,22.73
2018-11-26T19:23:20.731Z,22.03
2018-11-26T19:25:50.760Z,19.30
2018-11-26T19:28:20.498Z,19.60
2018-11-26T19:30:48.427Z,20.93
2018-11-26T19:33:17.230Z,19.73
2018-11-26T19:35:45.988Z,20.87
2018-11-26T19:38:14.737Z,18.47
2018-11-26T19:40:43.479Z,21.13
2018-11-26T19:43:13.282Z,19.30
2018-11-26T19:45:42.050Z,22.20
2018-11-26T19:48:10.825Z,23.10
2018-11-26T19:50:39.942Z,21.63
2018-11-26T19:53:11.000Z,17.80
2018-11-26T19:55:40.938Z,19.97
2018-11-26T19:58:10.240Z,20.23
2018-11-26T20:00:39.307Z,21.23
2018-11-26T20:03:15.358Z,22.40
2018-11-26T20:05:48.989Z,22.07
2018-11-26T20:08:17.667Z,26.33
2018-11-26T20:10:46.415Z,22.13
2018-11-26T20:13:15.131Z,26.07
2018-11-26T20:15:43.894Z,21.03
2018-11-26T20:18:12.670Z,24.90
2018-11-26T20:20:41.401Z,17.73
2018-11-26T20:23:10.097Z,26.60
2018-11-26T20:25:38.834Z,26.63
2018-11-26T20:28:07.626Z,28.77
2018-11-26T20:30:36.327Z,22.40
2018-11-26T20:33:05.187Z,23.03
2018-11-26T20:35:33.659Z,24.73
2018-11-26T20:38:02.349Z,31.43
2018-11-26T20:40:31.093Z,18.93
2018-11-26T20:42:59.778Z,27.67
2018-11-26T20:45:28.673Z,21.50
2018-11-26T20:47:57.380Z,19.33
2018-11-26T20:50:27.450Z,23.07
2018-11-26T20:52:56.238Z,23.93
2018-11-26T20:55:25.851Z,26.23
2018-11-26T20:57:55.818Z,26.63
2018-11-26T21:00:27.999Z,23.70
2018-11-26T21:03:04.110Z,21.60
2018-11-26T21:05:32.868Z,19.47
2018-11-26T21:08:01.666Z,22.63
2018-11-26T21:10:30.450Z,22.53
2018-11-26T21:12:59.218Z,22.00
2018-11-26T21:15:28.009Z,20.00
2018-11-26T21:17:57.861Z,21.97
2018-11-26T21:20:44.545Z,23.57
2018-11-26T21:23:16.916Z,20.43
2018-11-26T21:25:45.739Z,20.37
2018-11-26T21:28:15.418Z,18.43
2018-11-26T21:30:44.171Z,20.50
2018-11-26T21:33:13.070Z,21.47
2018-11-26T21:35:41.861Z,21.00
2018-11-26T21:38:12.049Z,23.17
2018-11-26T21:40:41.933Z,24.60
2018-11-26T21:43:11.491Z,21.00
2018-11-26T21:45:43.110Z,25.10
2018-11-26T21:48:11.921Z,22.50
2018-11-26T21:50:40.769Z,21.70
2018-11-26T21:53:10.477Z,20.27
2018-11-26T21:55:39.530Z,19.20
2018-11-26T21:58:08.255Z,19.73
2018-11-26T22:00:38.757Z,21.63
2018-11-26T22:03:09.313Z,17.63
2018-11-26T22:05:39.522Z,23.67
2018-11-26T22:08:09.230Z,20.40
2018-11-26T22:10:39.195Z,20.63
2018-11-26T22:13:10.609Z,18.77
2018-11-26T22:15:39.357Z,19.13
2018-11-26T22:18:08.486Z,22.00
2018-11-26T22:20:37.187Z,17.83
2018-11-26T22:23:06.764Z,25.57
2018-11-26T22:25:35.574Z,16.73
2018-11-26T22:28:06.085Z,18.67
2018-11-26T22:30:35.686Z,18.27
2018-11-26T22:33:04.455Z,17.80
2018-11-26T22:35:33.202Z,20.60
2018-11-26T22:38:01.919Z,20.23
2018-11-26T22:40:30.611Z,20.53
2018-11-26T22:42:59.346Z,18.47
2018-11-26T22:45:30.467Z,20.57
2018-11-26T22:48:03.445Z,17.97
2018-11-26T22:50:32.338Z,20.43
2018-11-26T22:53:00.995Z,18.67
2018-11-26T22:55:29.818Z,16.73
2018-11-26T22:57:58.451Z,17.60
2018-11-26T23:00:35.451Z,16.63
2018-11-26T23:03:04.625Z,17.17
2018-11-26T23:05:33.281Z,20.03
2018-11-26T23:08:02.057Z,19.60
2018-11-26T23:10:30.728Z,19.70
2018-11-26T23:12:59.430Z,16.73
2018-11-26T23:15:28.149Z,19.97
2018-11-26T23:17:56.897Z,18.93
2018-11-26T23:20:25.586Z,19.17
2018-11-26T23:22:54.285Z,20.93
2018-11-26T23:25:22.969Z,17.50
2018-11-26T23:27:51.703Z,17.50
2018-11-26T23:30:21.602Z,17.53
2018-11-26T23:32:50.585Z,17.13
2018-11-26T23:35:19.341Z,16.40
2018-11-26T23:37:48.054Z,18.33
2018-11-26T23:40:16.857Z,19.27
2018-11-26T23:42:45.591Z,21.13
2018-11-26T23:45:16.176Z,17.50
2018-11-26T23:47:44.884Z,20.93
2018-11-26T23:50:14.617Z,21.50
2018-11-26T23:52:43.508Z,22.37
2018-11-26T23:55:22.743Z,21.73
2018-11-26T23:57:51.453Z,23.80
